Map

Track Data

SID SEASON NUMBER BASIN SUBBASIN NAME ISO_TIME NATURE LAT LON WMO_WIND WMO_PRES WMO_AGENCY TRACK_TYPE DIST2LAND LANDFALL IFLAG USA_AGENCY USA_ATCF_ID USA_LAT USA_LON USA_RECORD USA_STATUS USA_WIND USA_PRES USA_SSHS USA_R34_NE USA_R34_SE USA_R34_SW USA_R34_NW USA_R50_NE USA_R50_SE USA_R50_SW USA_R50_NW USA_R64_NE USA_R64_SE USA_R64_SW USA_R64_NW USA_POCI USA_ROCI USA_RMW USA_EYE TOKYO_LAT TOKYO_LON TOKYO_GRADE TOKYO_WIND TOKYO_PRES TOKYO_R50_DIR TOKYO_R50_LONG TOKYO_R50_SHORT TOKYO_R30_DIR TOKYO_R30_LONG TOKYO_R30_SHORT TOKYO_LAND CMA_LAT CMA_LON CMA_CAT CMA_WIND CMA_PRES HKO_LAT HKO_LON HKO_CAT HKO_WIND HKO_PRES NEWDELHI_LAT NEWDELHI_LON NEWDELHI_GRADE NEWDELHI_WIND NEWDELHI_PRES NEWDELHI_CI NEWDELHI_DP NEWDELHI_POCI REUNION_LAT REUNION_LON REUNION_TYPE REUNION_WIND REUNION_PRES REUNION_TNUM REUNION_CI REUNION_RMW REUNION_R34_NE REUNION_R34_SE REUNION_R34_SW REUNION_R34_NW REUNION_R50_NE REUNION_R50_SE REUNION_R50_SW REUNION_R50_NW REUNION_R64_NE REUNION_R64_SE REUNION_R64_SW REUNION_R64_NW BOM_LAT BOM_LON BOM_TYPE BOM_WIND BOM_PRES BOM_TNUM BOM_CI BOM_RMW BOM_R34_NE BOM_R34_SE BOM_R34_SW BOM_R34_NW BOM_R50_NE BOM_R50_SE BOM_R50_SW BOM_R50_NW BOM_R64_NE BOM_R64_SE BOM_R64_SW BOM_R64_NW BOM_ROCI BOM_POCI BOM_EYE BOM_POS_METHOD BOM_PRES_METHOD NADI_LAT NADI_LON NADI_CAT NADI_WIND NADI_PRES WELLINGTON_LAT WELLINGTON_LON WELLINGTON_WIND WELLINGTON_PRES DS824_LAT DS824_LON DS824_STAGE DS824_WIND DS824_PRES TD9636_LAT TD9636_LON TD9636_STAGE TD9636_WIND TD9636_PRES TD9635_LAT TD9635_LON TD9635_WIND TD9635_PRES TD9635_ROCI NEUMANN_LAT NEUMANN_LON NEUMANN_CLASS NEUMANN_WIND NEUMANN_PRES MLC_LAT MLC_LON MLC_CLASS MLC_WIND MLC_PRES USA_GUST BOM_GUST BOM_GUST_PER REUNION_GUST REUNION_GUST_PER USA_SEAHGT USA_SEARAD_NE USA_SEARAD_SE USA_SEARAD_SW USA_SEARAD_NW STORM_SPEED STORM_DIR
1966171N14260 1966 34 EP MM ADELE 1966-06-20 00:00:00 TS 14.3000 -100.200 25 hurdat_epa main 273 262 O________OO___ hurdat_epa EP011966 14.3000 -100.200 TD 25 -1 14.3000 -100.200 TC 25 14.3000 -100.200 1 4 328
1966171N14260 1966 34 EP MM ADELE 1966-06-20 03:00:00 TS 14.4502 -100.300 main 254 246 P________PP___ EP011966 14.4475 -100.300 TD 25 -1 14.4475 -100.300 TC 25 14.4610 -100.300 1 4 327
1966171N14260 1966 34 EP MM ADELE 1966-06-20 06:00:00 TS 14.6035 -100.400 25 hurdat_epa main 246 229 O________OP___ hurdat_epa EP011966 14.6000 -100.400 TD 25 -1 14.6000 -100.400 TC 25 14.6175 -100.400 1 4 328
1966171N14260 1966 34 EP MM ADELE 1966-06-20 09:00:00 TS 14.7591 -100.500 main 229 223 P________PP___ EP011966 14.7575 -100.500 TD 25 -1 14.7575 -100.500 TC 25 14.7653 -100.500 1 4 327
1966171N14260 1966 34 EP MM ADELE 1966-06-20 12:00:00 TS 14.9000 -100.600 25 hurdat_epa main 223 213 O________OO___ hurdat_epa EP011966 14.9000 -100.600 TD 25 -1 14.9000 -100.600 TC 25 14.9000 -100.600 1 3 322
1966171N14260 1966 34 EP MM ADELE 1966-06-20 15:00:00 TS 15.0097 -100.700 main 218 208 P________PP___ EP011966 15.0075 -100.700 TD 25 -1 15.0075 -100.700 TC 25 15.0184 -100.700 1 3 316
1966171N14260 1966 34 EP MM ADELE 1966-06-20 18:00:00 TS 15.1045 -100.800 25 hurdat_epa main 214 205 O________OP___ hurdat_epa EP011966 15.1000 -100.800 TD 25 -1 15.1000 -100.800 TC 25 15.1225 -100.800 1 3 316
1966171N14260 1966 34 EP MM ADELE 1966-06-20 21:00:00 TS 15.2091 -100.900 main 211 202 P________PP___ EP011966 15.2075 -100.900 TD 25 -1 15.2075 -100.900 TC 25 15.2153 -100.900 1 3 315
1966171N14260 1966 34 EP MM ADELE 1966-06-21 00:00:00 TS 15.3000 -101.000 25 hurdat_epa main 208 200 O________OO___ hurdat_epa EP011966 15.3000 -101.000 TD 25 -1 15.3000 -101.000 TC 25 15.3000 -101.000 2 2 308
1966171N14260 1966 34 EP MM ADELE 1966-06-21 03:00:00 TS 15.3556 -101.098 main 200 200 P________PP___ EP011966 15.3500 -101.100 TD 25 -1 15.3500 -101.100 TC 25 15.3781 -101.088 2 2 300
1966171N14260 1966 34 EP MM ADELE 1966-06-21 06:00:00 TS 15.4100 -101.196 25 hurdat_epa main 204 194 O________OP___ hurdat_epa EP011966 15.4000 -101.200 TD 25 -1 15.4000 -101.200 TC 25 15.4499 -101.178 2 2 308
1966171N14260 1966 34 EP MM ADELE 1966-06-21 09:00:00 TS 15.4983 -101.290 main 197 186 P________PP___ EP011966 15.4925 -101.293 TD 35 0 15.4925 -101.293 TC 35 15.5218 -101.279 2 3 314
1966171N14260 1966 34 EP MM ADELE 1966-06-21 12:00:00 TS 15.6000 -101.400 45 hurdat_epa main 190 183 O________OO___ hurdat_epa EP011966 15.6000 -101.400 TS 45 0 15.6000 -101.400 TC 45 15.6000 -101.400 2 3 310
1966171N14260 1966 34 EP MM ADELE 1966-06-21 15:00:00 TS 15.7002 -101.540 main 183 176 P________PP___ EP011966 15.7000 -101.535 TS 45 0 15.7000 -101.535 TC 45 15.7010 -101.561 2 4 304
1966171N14260 1966 34 EP MM ADELE 1966-06-21 18:00:00 TS 15.8015 -101.708 45 hurdat_epa main 179 173 O________OP___ hurdat_epa EP011966 15.8000 -101.700 TS 45 0 15.8000 -101.700 TC 45 15.8076 -101.742 2 4 301
1966171N14260 1966 34 EP MM ADELE 1966-06-21 21:00:00 TS 15.9081 -101.905 main 178 174 P________PP___ EP011966 15.9075 -101.900 TS 45 0 15.9075 -101.900 TC 45 15.9104 -101.927 2 4 298
1966171N14260 1966 34 EP MM ADELE 1966-06-22 00:00:00 TS 16.0000 -102.100 45 hurdat_epa main 180 178 O________OO___ hurdat_epa EP011966 16.0000 -102.100 TS 45 0 16.0000 -102.100 TC 45 16.0000 -102.100 2 4 294
1966171N14260 1966 34 EP MM ADELE 1966-06-22 03:00:00 TS 16.0580 -102.253 main 185 185 P________PP___ EP011966 16.0575 -102.265 TS 45 0 16.0575 -102.265 TC 45 16.0601 -102.207 2 3 290
1966171N14260 1966 34 EP MM ADELE 1966-06-22 06:00:00 TS 16.1014 -102.381 45 hurdat_epa main 192 192 O________OP___ hurdat_epa EP011966 16.1000 -102.400 TS 45 0 16.1000 -102.400 TC 45 16.1071 -102.305 2 2 295
1966171N14260 1966 34 EP MM ADELE 1966-06-22 09:00:00 TS 16.1500 -102.461 main 188 188 P________PP___ EP011966 16.1499 -102.470 TS 45 0 16.1499 -102.470 TC 45 16.1506 -102.426 2 2 295
1966171N14260 1966 34 EP MM ADELE 1966-06-22 12:00:00 TS 16.2000 -102.600 45 hurdat_epa main 192 192 O________OO___ hurdat_epa EP011966 16.2000 -102.600 TS 45 0 16.2000 -102.600 TC 45 16.2000 -102.600 2 5 282
1966171N14260 1966 34 EP MM ADELE 1966-06-22 15:00:00 TS 16.2462 -102.921 main 200 193 P________PP___ EP011966 16.2426 -102.920 TS 45 0 16.2426 -102.920 TC 45 16.2603 -102.924 2 7 279
1966171N14260 1966 34 EP MM ADELE 1966-06-22 18:00:00 TS 16.3057 -103.299 45 hurdat_epa main 204 200 O________OP___ hurdat_epa EP011966 16.3000 -103.300 TS 45 0 16.3000 -103.300 TC 45 16.3284 -103.295 2 7 282
1966171N14260 1966 34 EP MM ADELE 1966-06-22 21:00:00 TS 16.3955 -103.651 main 208 200 P________PP___ EP011966 16.3925 -103.652 TS 60 0 16.3925 -103.652 TC 60 16.4071 -103.643 2 6 289
1966171N14260 1966 34 EP MM ADELE 1966-06-23 00:00:00 TS 16.5000 -103.900 75 hurdat_epa main 204 197 O________OO___ hurdat_epa EP011966 16.5000 -103.900 HU 75 1 16.5000 -103.900 TC 75 16.5000 -103.900 3 4 303
1966171N14260 1966 34 EP MM ADELE 1966-06-23 03:00:00 TS 16.5919 -103.960 main 197 183 P________PP___ EP011966 16.5924 -103.953 HU 75 1 16.5924 -103.953 TC 75 16.5900 -103.988 3 2 0
1966171N14260 1966 34 EP MM ADELE 1966-06-23 06:00:00 TS 16.6994 -103.916 75 hurdat_epa main 183 173 O________OP___ hurdat_epa EP011966 16.7000 -103.900 HU 75 1 16.7000 -103.900 TC 75 16.6972 -103.978 3 3 19
1966171N14260 1966 34 EP MM ADELE 1966-06-23 09:00:00 TS 16.8281 -103.873 main 173 148 P________PP___ EP011966 16.8275 -103.865 HU 75 1 16.8275 -103.865 TC 75 16.8308 -103.903 3 3 21
1966171N14260 1966 34 EP MM ADELE 1966-06-23 12:00:00 TS 17.0000 -103.800 75 hurdat_epa main 148 123 O________OO___ hurdat_epa EP011966 17.0000 -103.800 HU 75 1 17.0000 -103.800 TC 75 17.0000 -103.800 4 4 21
1966171N14260 1966 34 EP MM ADELE 1966-06-23 15:00:00 TS 17.2302 -103.705 main 123 89 P________PP___ EP011966 17.2350 -103.708 HU 75 1 17.2350 -103.708 TC 75 17.2107 -103.696 4 5 21
1966171N14260 1966 34 EP MM ADELE 1966-06-23 18:00:00 TS 17.4929 -103.599 75 hurdat_epa main 89 64 O________OP___ hurdat_epa EP011966 17.5000 -103.600 HU 75 1 17.5000 -103.600 TC 75 17.4551 -103.595 4 6 20
1966171N14260 1966 34 EP MM ADELE 1966-06-23 21:00:00 TS 17.7602 -103.500 main 54 30 P________PP___ EP011966 17.7650 -103.500 HU 75 1 17.7650 -103.500 TC 75 17.7220 -103.497 4 5 20
1966171N14260 1966 34 EP MM ADELE 1966-06-24 00:00:00 TS 18.0000 -103.400 75 hurdat_epa main 30 10 O________OO___ hurdat_epa EP011966 18.0000 -103.400 HU 75 1 18.0000 -103.400 TC 75 18.0000 -103.400 4 5 25
1966171N14260 1966 34 EP MM ADELE 1966-06-24 03:00:00 TS 18.1800 -103.292 main 10 0 P________P____ EP011966 18.1800 -103.292 HU 60 0 18.1800 -103.292 TC 60 4 4 32
1966171N14260 1966 34 EP MM ADELE 1966-06-24 06:00:00 MX 18.3000 -103.200 45 hurdat_epa main 0 0 O________O____ hurdat_epa EP011966 18.3000 -103.200 TS 45 0 18.3000 -103.200 45 4 2 38
1966171N14260 1966 34 EP MM ADELE 1966-06-24 09:00:00 MX 18.3650 -103.140 main 0 0 P________P____ EP011966 18.3650 -103.140 TS 35 0 18.3650 -103.140 35 4 1 43
1966171N14260 1966 34 EP MM ADELE 1966-06-24 12:00:00 MX 18.4000 -103.100 25 hurdat_epa main 0 O________O____ hurdat_epa EP011966 18.4000 -103.100 TD 25 -1 18.4000 -103.100 25 1 51

About IBTrACS Database

This database is a web-friendly format of International Best Track Archive for Climate Stewardship (IBTrACS), a global best track data archive curated by NOAA dating back to 1842.

Updated: 2021-12-08